createdAt,value
2023-02-12T00:01:28.997Z,1.80
2023-02-12T00:03:57.960Z,2.20
2023-02-12T00:06:26.586Z,1.60
2023-02-12T00:08:58.202Z,1.10
2023-02-12T00:11:28.209Z,1.00
2023-02-12T00:13:57.521Z,1.40
2023-02-12T00:16:27.702Z,1.50
2023-02-12T00:18:57.784Z,2.40
2023-02-12T00:21:26.630Z,2.50
2023-02-12T00:23:56.684Z,1.10
2023-02-12T00:26:25.678Z,1.70
2023-02-12T00:28:54.470Z,1.30
2023-02-12T00:31:25.376Z,1.70
2023-02-12T00:33:54.120Z,1.50
2023-02-12T00:36:24.478Z,1.20
2023-02-12T00:38:53.927Z,0.90
2023-02-12T00:41:24.715Z,1.20
2023-02-12T00:43:53.034Z,2.50
2023-02-12T00:46:21.482Z,1.20
2023-02-12T00:48:50.879Z,2.30
2023-02-12T00:51:21.810Z,1.20
2023-02-12T00:53:50.075Z,0.80
2023-02-12T00:56:18.371Z,1.50
2023-02-12T00:58:51.994Z,1.10
2023-02-12T01:01:21.933Z,1.70
2023-02-12T01:03:50.290Z,1.90
2023-02-12T01:06:18.570Z,1.10
2023-02-12T01:08:52.132Z,1.10
2023-02-12T01:11:21.637Z,1.00
2023-02-12T01:13:51.781Z,1.10
2023-02-12T01:16:22.971Z,2.20
2023-02-12T01:18:55.626Z,1.10
2023-02-12T01:21:26.413Z,2.00
2023-02-12T01:23:55.165Z,0.80
2023-02-12T01:26:23.977Z,1.50
2023-02-12T01:28:56.103Z,1.80
2023-02-12T01:31:27.325Z,0.50
2023-02-12T01:33:57.585Z,0.60
2023-02-12T01:36:26.882Z,0.30
2023-02-12T01:38:55.645Z,1.90
2023-02-12T01:41:26.956Z,0.80
2023-02-12T01:44:19.029Z,1.00
2023-02-12T01:46:49.015Z,0.30
2023-02-12T01:49:23.236Z,1.00
2023-02-12T01:51:56.686Z,1.00
2023-02-12T01:54:26.868Z,1.00
2023-02-12T01:56:55.543Z,2.20
2023-02-12T01:59:26.152Z,0.90
2023-02-12T02:01:56.784Z,1.00
2023-02-12T02:04:29.236Z,0.90
2023-02-12T02:07:00.036Z,1.00
2023-02-12T02:09:30.484Z,1.00
2023-02-12T02:12:16.270Z,0.80
2023-02-12T02:14:48.275Z,1.00
2023-02-12T02:17:31.290Z,1.00
2023-02-12T02:20:36.526Z,1.00
2023-02-12T02:23:31.925Z,1.00
2023-02-12T02:26:38.635Z,0.50
2023-02-12T02:29:21.993Z,1.00
2023-02-12T02:31:58.410Z,2.10
2023-02-12T02:34:32.241Z,0.60
2023-02-12T02:37:15.759Z,0.70
2023-02-12T02:39:49.938Z,1.00
2023-02-12T02:42:24.984Z,1.00
2023-02-12T02:44:56.764Z,0.90
2023-02-12T02:47:37.163Z,1.20
2023-02-12T02:50:08.975Z,1.80
2023-02-12T02:52:41.518Z,1.00
2023-02-12T02:55:12.370Z,0.90
2023-02-12T02:57:47.303Z,1.20
2023-02-12T03:00:20.114Z,1.30
2023-02-12T03:02:52.910Z,0.90
2023-02-12T03:05:25.351Z,0.10
2023-02-12T03:07:58.686Z,1.20
2023-02-12T03:10:31.772Z,0.20
2023-02-12T03:13:04.932Z,0.60
2023-02-12T03:15:38.658Z,1.10
2023-02-12T03:18:12.527Z,0.80
2023-02-12T03:20:46.933Z,0.80
2023-02-12T03:23:20.723Z,1.60
2023-02-12T03:25:55.083Z,0.80
2023-02-12T03:28:28.075Z,0.90
2023-02-12T03:31:04.784Z,0.50
2023-02-12T03:33:45.856Z,0.90
2023-02-12T03:36:27.684Z,0.80
2023-02-12T03:38:58.807Z,0.80
2023-02-12T03:41:32.191Z,0.30
2023-02-12T03:44:09.458Z,0.90
2023-02-12T03:46:44.225Z,0.80
2023-02-12T03:49:21.335Z,0.70
2023-02-12T03:51:49.645Z,0.80
2023-02-12T03:54:20.658Z,0.70
2023-02-12T03:56:52.526Z,0.50
2023-02-12T03:59:22.466Z,0.70
2023-02-12T04:01:53.577Z,0.70
2023-02-12T04:04:25.473Z,0.70
2023-02-12T04:06:55.217Z,0.20
2023-02-12T04:09:25.106Z,0.40
2023-02-12T04:12:01.784Z,0.70
2023-02-12T04:14:37.372Z,0.70
2023-02-12T04:17:13.581Z,0.60
2023-02-12T04:19:53.389Z,-0.20
2023-02-12T04:22:35.832Z,0.60
2023-02-12T04:25:15.797Z,0.50
2023-02-12T04:27:50.124Z,0.50
2023-02-12T04:30:26.226Z,0.50
2023-02-12T04:32:58.353Z,0.60
2023-02-12T04:35:33.973Z,0.50
2023-02-12T04:38:09.902Z,-0.10
2023-02-12T04:40:40.675Z,0.50
2023-02-12T04:43:09.588Z,0.40
2023-02-12T04:45:38.882Z,0.50
2023-02-12T04:48:07.747Z,0.50
2023-02-12T04:50:42.222Z,0.90
2023-02-12T04:53:11.493Z,0.20
2023-02-12T04:55:39.950Z,0.50
2023-02-12T04:58:08.482Z,0.40
2023-02-12T05:00:37.000Z,0.40
2023-02-12T05:03:05.761Z,0.40
2023-02-12T05:05:34.227Z,0.40
2023-02-12T05:08:03.928Z,0.40
2023-02-12T05:10:32.215Z,0.40
2023-02-12T05:13:00.512Z,0.40
2023-02-12T05:15:28.800Z,0.40
2023-02-12T05:17:57.061Z,1.40
2023-02-12T05:20:25.408Z,0.80
2023-02-12T05:22:54.497Z,0.80
2023-02-12T05:25:24.320Z,0.80
2023-02-12T05:27:52.578Z,0.30
2023-02-12T05:30:21.012Z,0.60
2023-02-12T05:32:49.406Z,-0.10
2023-02-12T05:35:17.752Z,0.50
2023-02-12T05:37:46.012Z,0.30
2023-02-12T05:40:15.175Z,0.20
2023-02-12T05:42:44.795Z,0.20
2023-02-12T05:45:13.127Z,0.20
2023-02-12T05:47:41.400Z,-0.30
2023-02-12T05:50:10.208Z,0.80
2023-02-12T05:52:38.505Z,0.10
2023-02-12T05:55:07.757Z,0.10
2023-02-12T05:57:36.056Z,0.10
2023-02-12T06:00:06.858Z,0.10
2023-02-12T06:02:40.740Z,0.20
2023-02-12T06:05:09.428Z,0.50
2023-02-12T06:07:37.630Z,0.20
2023-02-12T06:10:06.690Z,0.20
2023-02-12T06:12:35.031Z,0.20
2023-02-12T06:15:03.309Z,0.20
2023-02-12T06:17:32.948Z,0.00
2023-02-12T06:20:01.301Z,0.10
2023-02-12T06:22:29.992Z,-0.10
2023-02-12T06:24:58.339Z,0.10
2023-02-12T06:27:26.570Z,0.00
2023-02-12T06:29:54.859Z,0.00
2023-02-12T06:32:23.709Z,-0.40
2023-02-12T06:34:53.372Z,0.00
2023-02-12T06:37:21.670Z,-0.10
2023-02-12T06:39:49.910Z,-0.10
2023-02-12T06:42:18.197Z,-0.10
2023-02-12T06:44:47.685Z,-0.10
2023-02-12T06:47:16.055Z,-0.10
2023-02-12T06:49:44.277Z,-0.20
2023-02-12T06:52:14.200Z,-0.30
2023-02-12T06:54:42.662Z,-0.30
2023-02-12T06:57:11.260Z,-0.10
2023-02-12T06:59:39.533Z,0.60
2023-02-12T07:02:07.950Z,0.00
2023-02-12T07:04:36.206Z,0.10
2023-02-12T07:07:05.906Z,-0.10
2023-02-12T07:09:35.634Z,-0.10
2023-02-12T07:12:04.075Z,-0.30
2023-02-12T07:14:32.321Z,0.20
2023-02-12T07:17:03.686Z,0.40
2023-02-12T07:19:32.505Z,0.20
2023-02-12T07:22:00.734Z,-0.30
2023-02-12T07:24:29.217Z,-0.10
2023-02-12T07:26:58.826Z,0.70
2023-02-12T07:29:27.154Z,0.30
2023-02-12T07:31:55.523Z,0.00
2023-02-12T07:34:24.015Z,0.00
2023-02-12T07:36:52.334Z,0.70
2023-02-12T07:39:20.615Z,-0.10
2023-02-12T07:41:49.113Z,0.00
2023-02-12T07:44:18.844Z,0.00
2023-02-12T07:46:49.066Z,-0.30
2023-02-12T07:49:18.870Z,0.10
2023-02-12T07:51:47.361Z,0.20
2023-02-12T07:54:16.162Z,0.30
2023-02-12T07:56:47.115Z,0.30
2023-02-12T07:59:18.777Z,0.40
2023-02-12T08:01:48.764Z,0.40
2023-02-12T08:04:19.010Z,0.40
2023-02-12T08:06:48.710Z,1.20
2023-02-12T08:09:19.326Z,0.60
2023-02-12T08:11:47.922Z,1.20
2023-02-12T08:14:19.421Z,0.60
2023-02-12T08:16:49.378Z,0.60
2023-02-12T08:19:21.689Z,0.80
2023-02-12T08:21:52.580Z,0.60
2023-02-12T08:24:22.240Z,0.80
2023-02-12T08:26:51.270Z,0.90
2023-02-12T08:29:22.836Z,0.10
2023-02-12T08:31:55.923Z,1.40
2023-02-12T08:34:34.066Z,0.80
2023-02-12T08:37:03.241Z,1.10
2023-02-12T08:39:31.716Z,0.80
2023-02-12T08:42:01.680Z,0.90
2023-02-12T08:44:31.587Z,1.60
2023-02-12T08:47:00.037Z,1.00
2023-02-12T08:49:31.058Z,0.80
2023-02-12T08:52:01.880Z,0.50
2023-02-12T08:54:31.724Z,0.50
2023-02-12T08:57:01.819Z,1.10
2023-02-12T08:59:31.904Z,0.70
2023-02-12T09:02:00.884Z,1.40
2023-02-12T09:04:29.981Z,1.90
2023-02-12T09:06:58.309Z,0.90
2023-02-12T09:09:26.572Z,0.80
2023-02-12T09:11:54.990Z,1.10
2023-02-12T09:14:25.052Z,1.10
2023-02-12T09:16:57.331Z,1.20
2023-02-12T09:19:26.310Z,1.30
2023-02-12T09:21:56.457Z,1.30
2023-02-12T09:24:25.889Z,1.30
2023-02-12T09:26:54.160Z,2.30
2023-02-12T09:29:22.486Z,1.00
2023-02-12T09:31:50.977Z,1.60
2023-02-12T09:34:20.824Z,1.50
2023-02-12T09:36:50.178Z,1.40
2023-02-12T09:39:18.397Z,1.30
2023-02-12T09:42:08.703Z,1.20
2023-02-12T09:44:42.132Z,1.60
2023-02-12T09:47:16.832Z,1.60
2023-02-12T09:50:05.152Z,1.50
2023-02-12T09:52:34.701Z,1.60
2023-02-12T09:55:03.677Z,1.90
2023-02-12T09:57:35.751Z,2.90
2023-02-12T10:00:11.170Z,2.90
2023-02-12T10:02:41.068Z,2.00
2023-02-12T10:05:18.764Z,2.00
2023-02-12T10:08:05.614Z,1.80
2023-02-12T10:10:48.465Z,2.10
2023-02-12T10:13:24.553Z,2.00
2023-02-12T10:15:59.490Z,2.00
2023-02-12T10:18:55.196Z,2.20
2023-02-12T10:21:39.392Z,2.10
2023-02-12T10:24:21.932Z,2.10
2023-02-12T10:26:53.868Z,2.00
2023-02-12T10:29:25.074Z,2.30
2023-02-12T10:34:27.676Z,2.30
2023-02-12T10:37:03.037Z,3.00
2023-02-12T10:39:36.527Z,2.80
2023-02-12T10:42:12.927Z,2.50
2023-02-12T10:44:41.262Z,2.90
2023-02-12T10:47:15.625Z,2.50
2023-02-12T10:49:43.861Z,2.10
2023-02-12T10:52:23.170Z,3.40
2023-02-12T10:54:51.498Z,3.30
2023-02-12T10:57:22.716Z,3.00
2023-02-12T10:59:53.205Z,2.50
2023-02-12T11:02:28.061Z,2.20
2023-02-12T11:04:58.128Z,2.70
2023-02-12T11:07:29.650Z,3.10
2023-02-12T11:09:58.815Z,3.50
2023-02-12T11:12:35.851Z,2.90
2023-02-12T11:15:08.922Z,2.60
2023-02-12T11:17:39.892Z,2.90
2023-02-12T11:20:35.245Z,3.90
2023-02-12T11:23:07.037Z,2.30
2023-02-12T11:25:37.538Z,3.10
2023-02-12T11:28:15.177Z,3.90
2023-02-12T11:30:56.001Z,3.00
2023-02-12T11:33:28.091Z,3.20
2023-02-12T11:35:58.694Z,3.00
2023-02-12T11:38:32.845Z,3.50
2023-02-12T11:41:05.383Z,2.90
2023-02-12T11:43:37.357Z,3.70
2023-02-12T11:46:08.583Z,2.80
2023-02-12T11:48:40.679Z,3.90
2023-02-12T11:51:18.732Z,3.80
2023-02-12T11:53:52.961Z,2.80
2023-02-12T11:56:22.045Z,3.60
2023-02-12T11:58:51.864Z,3.90
2023-02-12T12:01:23.144Z,3.80
2023-02-12T12:04:00.597Z,3.40
2023-02-12T12:06:34.158Z,3.10
2023-02-12T12:09:11.463Z,3.00
2023-02-12T12:11:47.526Z,3.30
2023-02-12T12:14:25.434Z,3.40
2023-02-12T12:17:17.076Z,3.20
2023-02-12T12:19:55.821Z,3.60
2023-02-12T12:22:43.860Z,3.80
2023-02-12T12:25:21.734Z,4.00
2023-02-12T12:28:06.597Z,4.80
2023-02-12T12:30:46.817Z,4.10
2023-02-12T12:33:18.476Z,4.10
2023-02-12T12:35:58.279Z,3.60
2023-02-12T12:38:37.137Z,4.40
2023-02-12T12:41:15.496Z,3.50
2023-02-12T12:43:56.785Z,4.50
2023-02-12T12:46:35.619Z,3.80
2023-02-12T12:49:30.269Z,4.60
2023-02-12T12:52:08.775Z,3.70
2023-02-12T12:54:51.344Z,3.80
2023-02-12T12:57:31.924Z,3.50
2023-02-12T13:00:25.012Z,3.90
2023-02-12T13:03:18.919Z,3.80
2023-02-12T13:06:07.896Z,3.50
2023-02-12T13:08:56.127Z,4.00
2023-02-12T13:11:36.109Z,3.50
2023-02-12T13:14:24.209Z,3.60
2023-02-12T13:17:01.697Z,3.60
2023-02-12T13:19:41.118Z,3.70
2023-02-12T13:22:16.861Z,4.60
2023-02-12T13:24:51.115Z,4.00
2023-02-12T13:27:23.171Z,4.10
2023-02-12T13:29:55.094Z,3.60
2023-02-12T13:32:28.307Z,3.80
2023-02-12T13:34:57.694Z,3.40
2023-02-12T13:37:36.733Z,3.60
2023-02-12T13:40:07.224Z,3.40
2023-02-12T13:42:45.372Z,3.60
2023-02-12T13:45:28.810Z,4.60
2023-02-12T13:48:10.500Z,3.50
2023-02-12T13:50:45.852Z,3.40
2023-02-12T13:53:21.919Z,3.90
2023-02-12T13:56:02.983Z,3.50
2023-02-12T13:58:51.537Z,3.50
2023-02-12T14:01:47.724Z,3.80
2023-02-12T14:04:48.039Z,3.40
2023-02-12T14:07:17.441Z,3.40
2023-02-12T14:09:48.484Z,3.40
2023-02-12T14:12:19.102Z,2.90
2023-02-12T14:14:50.613Z,3.40
2023-02-12T14:17:44.105Z,3.50
2023-02-12T14:20:29.644Z,3.20
2023-02-12T14:23:27.920Z,2.90
2023-02-12T14:26:01.673Z,3.10
2023-02-12T14:28:43.086Z,3.00
2023-02-12T14:31:30.159Z,4.00
2023-02-12T14:34:31.993Z,2.70
2023-02-12T14:37:32.681Z,2.80
2023-02-12T14:40:34.295Z,2.70
2023-02-12T14:43:05.198Z,2.70
2023-02-12T14:45:37.336Z,2.70
2023-02-12T14:48:06.858Z,2.70
2023-02-12T14:50:43.616Z,3.30
2023-02-12T14:53:34.194Z,2.70
2023-02-12T14:56:03.989Z,2.70
2023-02-12T14:58:33.862Z,2.60
2023-02-12T15:01:04.281Z,2.30
2023-02-12T15:03:43.138Z,2.40
2023-02-12T15:06:16.180Z,2.30
2023-02-12T15:08:53.289Z,2.20
2023-02-12T15:11:28.120Z,3.00
2023-02-12T15:14:01.136Z,1.90
2023-02-12T15:16:36.229Z,2.00
2023-02-12T15:19:18.473Z,1.50
2023-02-12T15:21:47.236Z,2.00
2023-02-12T15:24:24.503Z,1.40
2023-02-12T15:26:55.539Z,1.10
2023-02-12T15:29:27.556Z,1.90
2023-02-12T15:31:58.862Z,2.30
2023-02-12T15:34:31.800Z,3.30
2023-02-12T15:37:01.921Z,1.90
2023-02-12T15:39:38.921Z,1.60
2023-02-12T15:42:23.949Z,1.30
2023-02-12T15:44:52.214Z,1.40
2023-02-12T15:47:24.788Z,1.40
2023-02-12T15:50:00.581Z,1.00
2023-02-12T15:52:35.231Z,0.80
2023-02-12T15:55:06.239Z,1.10
2023-02-12T15:57:34.762Z,0.90
2023-02-12T16:00:07.452Z,0.90
2023-02-12T16:02:41.096Z,0.70
2023-02-12T16:05:15.333Z,0.60
2023-02-12T16:07:43.670Z,1.60
2023-02-12T16:10:16.656Z,0.40
2023-02-12T16:12:46.122Z,1.40
2023-02-12T16:15:30.816Z,0.30
2023-02-12T16:18:04.034Z,0.20
2023-02-12T16:20:33.123Z,0.20
2023-02-12T16:23:07.434Z,0.20
2023-02-12T16:25:37.792Z,0.10
2023-02-12T16:28:08.383Z,0.90
2023-02-12T16:30:39.098Z,0.00
2023-02-12T16:33:28.020Z,0.00
2023-02-12T16:36:02.894Z,0.10
2023-02-12T16:38:42.529Z,0.00
2023-02-12T16:41:24.611Z,0.10
2023-02-12T16:44:23.010Z,0.60
2023-02-12T16:46:54.122Z,0.10
2023-02-12T16:49:25.241Z,0.20
2023-02-12T16:51:54.295Z,0.60
2023-02-12T16:54:32.052Z,0.00
2023-02-12T16:57:02.826Z,-0.20
2023-02-12T16:59:31.438Z,0.10
2023-02-12T17:02:02.045Z,0.10
2023-02-12T17:04:30.577Z,0.10
2023-02-12T17:06:59.103Z,-0.70
2023-02-12T17:09:29.676Z,-0.20
2023-02-12T17:11:58.037Z,0.30
2023-02-12T17:14:30.124Z,0.00
2023-02-12T17:16:58.478Z,1.10
2023-02-12T17:19:26.683Z,0.00
2023-02-12T17:21:55.053Z,0.10
2023-02-12T17:24:26.257Z,0.00
2023-02-12T17:26:55.106Z,0.00
2023-02-12T17:29:25.398Z,-0.10
2023-02-12T17:31:56.232Z,-0.10
2023-02-12T17:34:25.231Z,-0.20
2023-02-12T17:36:54.052Z,-0.10
2023-02-12T17:39:23.824Z,-0.20
2023-02-12T17:41:52.620Z,-0.20
2023-02-12T17:44:20.859Z,-0.10
2023-02-12T17:46:49.273Z,-0.10
2023-02-12T17:49:18.968Z,0.00
2023-02-12T17:51:47.260Z,0.20
2023-02-12T17:54:17.679Z,0.20
2023-02-12T17:56:45.874Z,0.30
2023-02-12T17:59:14.139Z,0.40
2023-02-12T18:01:42.552Z,0.50
2023-02-12T18:04:10.788Z,0.30
2023-02-12T18:06:40.464Z,0.80
2023-02-12T18:09:08.764Z,0.80
2023-02-12T18:11:39.141Z,0.90
2023-02-12T18:14:07.475Z,1.00
2023-02-12T18:16:36.374Z,1.40
2023-02-12T18:19:05.777Z,1.30
2023-02-12T18:21:35.179Z,1.80
2023-02-12T18:24:05.182Z,0.10
2023-02-12T18:26:33.740Z,1.30
2023-02-12T18:29:02.453Z,2.20
2023-02-12T18:31:31.525Z,2.00
2023-02-12T18:33:59.805Z,1.40
2023-02-12T18:36:27.986Z,1.30
2023-02-12T18:38:56.247Z,1.20
2023-02-12T18:41:27.776Z,1.20
2023-02-12T18:43:56.213Z,1.60
2023-02-12T18:46:26.691Z,1.80
2023-02-12T18:48:56.728Z,1.60
2023-02-12T18:51:27.167Z,1.40
2023-02-12T18:53:56.780Z,2.10
2023-02-12T18:56:26.476Z,2.40
2023-02-12T18:58:57.694Z,1.70
2023-02-12T19:01:26.605Z,1.60
2023-02-12T19:03:56.350Z,2.60
2023-02-12T19:06:24.957Z,2.20
2023-02-12T19:08:56.148Z,1.10
2023-02-12T19:11:24.602Z,2.00
2023-02-12T19:13:54.650Z,1.40
2023-02-12T19:16:24.588Z,1.80
2023-02-12T19:18:54.905Z,1.60
2023-02-12T19:21:26.179Z,2.00
2023-02-12T19:23:55.107Z,3.10
2023-02-12T19:26:24.130Z,1.60
2023-02-12T19:28:54.600Z,1.60
2023-02-12T19:31:25.862Z,2.60
2023-02-12T19:33:58.204Z,2.00
2023-02-12T19:36:28.175Z,2.70
2023-02-12T19:38:56.866Z,2.10
2023-02-12T19:41:28.037Z,2.10
2023-02-12T19:44:00.132Z,2.10
2023-02-12T19:46:30.781Z,2.70
2023-02-12T19:49:00.422Z,2.10
2023-02-12T19:51:29.992Z,1.50
2023-02-12T19:54:01.266Z,3.10
2023-02-12T19:56:29.721Z,2.30
2023-02-12T19:58:59.500Z,2.50
2023-02-12T20:01:28.885Z,2.30
2023-02-12T20:03:57.995Z,2.30
2023-02-12T20:06:29.694Z,2.30
2023-02-12T20:08:58.306Z,2.30
2023-02-12T20:11:29.447Z,2.30
2023-02-12T20:14:00.214Z,2.40
2023-02-12T20:16:34.263Z,1.80
2023-02-12T20:19:06.633Z,2.90
2023-02-12T20:21:35.379Z,3.30
2023-02-12T20:24:03.828Z,2.60
2023-02-12T20:26:33.556Z,2.10
2023-02-12T20:29:05.386Z,2.60
2023-02-12T20:31:35.927Z,1.90
2023-02-12T20:34:07.272Z,2.50
2023-02-12T20:36:37.797Z,3.40
2023-02-12T20:39:08.056Z,2.90
2023-02-12T20:41:37.440Z,2.50
2023-02-12T20:44:11.156Z,2.60
2023-02-12T20:46:40.285Z,2.60
2023-02-12T20:49:08.752Z,2.80
2023-02-12T20:51:37.084Z,2.60
2023-02-12T20:54:05.524Z,2.50
2023-02-12T20:56:35.763Z,2.60
2023-02-12T20:59:05.705Z,1.80
2023-02-12T21:01:37.872Z,2.70
2023-02-12T21:04:08.545Z,2.70
2023-02-12T21:06:40.053Z,1.90
2023-02-12T21:09:09.678Z,2.40
2023-02-12T21:11:38.640Z,2.20
2023-02-12T21:14:24.190Z,3.70
2023-02-12T21:16:55.486Z,2.70
2023-02-12T21:19:24.377Z,2.30
2023-02-12T21:21:52.736Z,2.70
2023-02-12T21:24:22.524Z,2.70
2023-02-12T21:26:52.174Z,2.70
2023-02-12T21:29:21.309Z,2.10
2023-02-12T21:31:50.889Z,2.80
2023-02-12T21:34:22.168Z,3.20
2023-02-12T21:36:51.813Z,2.70
2023-02-12T21:39:26.264Z,3.00
2023-02-12T21:41:56.692Z,2.40
2023-02-12T21:44:26.002Z,2.70
2023-02-12T21:46:54.710Z,2.70
2023-02-12T21:49:27.659Z,2.50
2023-02-12T21:51:58.220Z,3.00
2023-02-12T21:54:26.988Z,2.70
2023-02-12T21:56:55.953Z,2.90
2023-02-12T21:59:28.215Z,2.70
2023-02-12T22:01:59.100Z,2.80
2023-02-12T22:04:29.459Z,3.00
2023-02-12T22:06:58.272Z,2.90
2023-02-12T22:09:26.668Z,2.60
2023-02-12T22:11:56.155Z,3.20
2023-02-12T22:14:24.599Z,2.60
2023-02-12T22:16:53.216Z,3.00
2023-02-12T22:19:21.474Z,2.60
2023-02-12T22:21:52.610Z,3.10
2023-02-12T22:24:21.544Z,3.30
2023-02-12T22:26:49.797Z,2.40
2023-02-12T22:29:18.502Z,3.10
2023-02-12T22:31:48.132Z,3.10
2023-02-12T22:34:18.606Z,3.10
2023-02-12T22:36:47.391Z,3.20
2023-02-12T22:39:17.681Z,4.10
2023-02-12T22:41:46.338Z,3.40
2023-02-12T22:44:15.862Z,3.10
2023-02-12T22:46:44.320Z,3.30
2023-02-12T22:49:13.129Z,4.20
2023-02-12T22:51:41.713Z,3.80
2023-02-12T22:54:13.879Z,3.30
2023-02-12T22:56:43.636Z,3.10
2023-02-12T22:59:13.544Z,3.50
2023-02-12T23:01:42.189Z,3.40
2023-02-12T23:04:15.611Z,3.90
2023-02-12T23:06:44.329Z,3.40
2023-02-12T23:09:14.861Z,4.40
2023-02-12T23:11:44.568Z,4.10
2023-02-12T23:14:13.385Z,4.60
2023-02-12T23:16:41.814Z,3.80
2023-02-12T23:19:12.172Z,3.20
2023-02-12T23:21:40.546Z,3.40
2023-02-12T23:24:09.346Z,3.40
2023-02-12T23:26:38.902Z,3.50
2023-02-12T23:29:08.833Z,3.60
2023-02-12T23:31:37.281Z,3.60
2023-02-12T23:34:05.709Z,3.50
2023-02-12T23:36:34.188Z,3.90
2023-02-12T23:39:05.737Z,3.80
2023-02-12T23:41:34.114Z,3.80
2023-02-12T23:44:06.209Z,4.80
2023-02-12T23:46:35.863Z,3.90
2023-02-12T23:49:04.354Z,3.90
2023-02-12T23:51:33.466Z,4.50
2023-02-12T23:54:01.782Z,4.30
2023-02-12T23:56:30.150Z,4.10
2023-02-12T23:58:58.498Z,3.90
